createdAt,value
2017-08-25T00:00:32.512Z,20.38
2017-08-25T00:01:32.493Z,20.33
2017-08-25T00:02:32.488Z,20.31
2017-08-25T00:03:32.473Z,20.4
2017-08-25T00:04:32.453Z,20.41
2017-08-25T00:05:32.436Z,20.33
2017-08-25T00:06:32.744Z,20.4
2017-08-25T00:07:32.105Z,20.31
2017-08-25T00:08:32.393Z,20.31
2017-08-25T00:09:32.385Z,20.4
2017-08-25T00:10:32.676Z,20.44
2017-08-25T00:11:32.675Z,20.32
2017-08-25T00:12:32.345Z,20.38
2017-08-25T00:13:32.322Z,20.28
2017-08-25T00:14:32.628Z,20.18
2017-08-25T00:15:32.294Z,20.25
2017-08-25T00:16:32.281Z,20.2
2017-08-25T00:17:32.282Z,20.23
2017-08-25T00:18:32.562Z,20.23
2017-08-25T00:19:32.541Z,20.17
2017-08-25T00:20:32.223Z,20.22
2017-08-25T00:21:32.223Z,20.13
2017-08-25T00:22:32.189Z,20.13
2017-08-25T00:23:32.505Z,20.07
2017-08-25T00:24:32.185Z,20.04
2017-08-25T00:25:32.472Z,19.99
2017-08-25T00:26:32.205Z,19.81
2017-08-25T00:27:32.431Z,19.85
2017-08-25T00:28:32.421Z,19.81
2017-08-25T00:29:32.402Z,19.81
2017-08-25T00:30:32.468Z,19.78
2017-08-25T00:31:32.384Z,19.81
2017-08-25T00:32:32.404Z,19.86
2017-08-25T00:33:32.027Z,19.89
2017-08-25T00:34:32.440Z,19.81
2017-08-25T00:35:32.005Z,19.83
2017-08-25T00:36:32.351Z,19.81
2017-08-25T00:37:32.291Z,19.76
2017-08-25T00:38:32.383Z,19.69
2017-08-25T00:39:32.258Z,19.69
2017-08-25T00:40:31.614Z,19.71
2017-08-25T00:41:32.242Z,19.74
2017-08-25T00:42:32.260Z,19.62
2017-08-25T00:43:32.216Z,19.69
2017-08-25T00:44:31.924Z,19.58
2017-08-25T00:45:32.172Z,19.58
2017-08-25T00:46:31.924Z,19.52
2017-08-25T00:47:31.527Z,19.52
2017-08-25T00:48:32.141Z,19.51
2017-08-25T00:49:32.192Z,19.48
2017-08-25T00:50:32.090Z,19.52
2017-08-25T00:51:32.100Z,19.51
2017-08-25T00:52:32.062Z,19.51
2017-08-25T00:53:32.047Z,19.37
2017-08-25T00:54:32.038Z,19.34
2017-08-25T00:55:32.020Z,19.21
2017-08-25T00:56:31.697Z,19.25
2017-08-25T00:57:31.688Z,19.31
2017-08-25T00:58:31.977Z,19.33
2017-08-25T00:59:31.969Z,19.33
2017-08-25T01:00:31.641Z,19.31
2017-08-25T01:01:31.688Z,19.33
2017-08-25T01:02:31.608Z,19.34
2017-08-25T01:03:31.909Z,19.23
2017-08-25T01:04:31.592Z,19.36
2017-08-25T01:05:31.581Z,19.33
2017-08-25T01:06:31.871Z,19.26
2017-08-25T01:07:31.542Z,19.31
2017-08-25T01:08:31.521Z,19.26
2017-08-25T01:09:31.199Z,19.34
2017-08-25T01:10:31.811Z,19.26
2017-08-25T01:11:31.487Z,19.18
2017-08-25T01:12:31.150Z,19.22
2017-08-25T01:13:31.769Z,19.21
2017-08-25T01:14:31.738Z,19.21
2017-08-25T01:15:31.410Z,19.22
2017-08-25T01:16:31.402Z,19.07
2017-08-25T01:17:31.388Z,19.04
2017-08-25T01:18:31.707Z,19.07
2017-08-25T01:19:31.699Z,18.96
2017-08-25T01:20:31.343Z,18.97
2017-08-25T01:21:31.323Z,19.06
2017-08-25T01:22:31.314Z,18.95
2017-08-25T01:23:31.399Z,18.96
2017-08-25T01:24:31.602Z,19.04
2017-08-25T01:25:31.270Z,19.04
2017-08-25T01:26:31.246Z,18.99
2017-08-25T01:27:31.236Z,19.02
2017-08-25T01:28:31.541Z,18.97
2017-08-25T01:29:31.509Z,19.02
2017-08-25T01:30:31.198Z,18.92
2017-08-25T01:31:31.182Z,18.97
2017-08-25T01:32:31.473Z,19.06
2017-08-25T01:33:31.158Z,19.04
2017-08-25T01:34:30.818Z,18.85
2017-08-25T01:35:31.121Z,18.84
2017-08-25T01:36:31.421Z,18.84
2017-08-25T01:37:31.389Z,18.87
2017-08-25T01:38:31.367Z,18.85
2017-08-25T01:39:31.359Z,18.81
2017-08-25T01:40:31.039Z,18.85
2017-08-25T01:41:31.320Z,18.84
2017-08-25T01:42:31.319Z,18.82
2017-08-25T01:43:31.303Z,18.75
2017-08-25T01:44:31.297Z,18.56
2017-08-25T01:45:30.951Z,18.51
2017-08-25T01:46:31.258Z,18.47
2017-08-25T01:47:31.260Z,18.5
2017-08-25T01:48:31.230Z,18.62
2017-08-25T01:49:31.220Z,18.48
2017-08-25T01:50:31.199Z,18.48
2017-08-25T01:51:31.196Z,18.33
2017-08-25T01:52:31.163Z,18.37
2017-08-25T01:53:31.150Z,18.14
2017-08-25T01:54:31.124Z,18.19
2017-08-25T01:55:31.116Z,18.23
2017-08-25T01:56:31.100Z,18.32
2017-08-25T01:57:31.094Z,18.38
2017-08-25T01:58:31.079Z,18.35
2017-08-25T01:59:30.751Z,18.38
2017-08-25T02:00:31.058Z,18.32
2017-08-25T02:01:30.708Z,18.42
2017-08-25T02:02:30.699Z,18.38
2017-08-25T02:03:30.679Z,18.51
2017-08-25T02:04:30.976Z,18.37
2017-08-25T02:05:30.645Z,18.47
2017-08-25T02:06:30.635Z,18.45
2017-08-25T02:07:30.932Z,18.51
2017-08-25T02:08:30.598Z,18.51
2017-08-25T02:09:30.584Z,18.65
2017-08-25T02:10:30.900Z,18.51
2017-08-25T02:11:30.884Z,18.58
2017-08-25T02:12:30.548Z,18.56
2017-08-25T02:13:30.849Z,18.55
2017-08-25T02:14:30.857Z,18.48
2017-08-25T02:15:30.489Z,18.44
2017-08-25T02:16:30.809Z,18.4
2017-08-25T02:17:30.762Z,18.4
2017-08-25T02:18:30.769Z,18.41
2017-08-25T02:19:30.748Z,18.51
2017-08-25T02:20:30.418Z,18.51
2017-08-25T02:21:30.705Z,18.41
2017-08-25T02:22:30.700Z,18.44
2017-08-25T02:23:30.062Z,18.59
2017-08-25T02:24:30.352Z,18.38
2017-08-25T02:25:30.660Z,18.5
2017-08-25T02:26:30.010Z,18.42
2017-08-25T02:27:30.370Z,18.35
2017-08-25T02:28:30.289Z,18.3
2017-08-25T02:29:29.973Z,18.26
2017-08-25T02:30:30.578Z,18.3
2017-08-25T02:31:30.289Z,18.27
2017-08-25T02:32:30.242Z,18.33
2017-08-25T02:33:30.315Z,18.41
2017-08-25T02:34:30.200Z,18.23
2017-08-25T02:35:30.499Z,18.26
2017-08-25T02:36:30.479Z,18.37
2017-08-25T02:37:30.251Z,18.37
2017-08-25T02:38:29.829Z,18.26
2017-08-25T02:39:30.160Z,18.14
2017-08-25T02:40:30.106Z,18.23
2017-08-25T02:41:30.124Z,18.19
2017-08-25T02:42:30.093Z,18.15
2017-08-25T02:43:30.108Z,18.22
2017-08-25T02:44:30.052Z,18.15
2017-08-25T02:45:30.432Z,18.25
2017-08-25T02:46:30.329Z,18.22
2017-08-25T02:47:30.050Z,18.25
2017-08-25T02:48:30.000Z,18.25
2017-08-25T02:49:29.974Z,18.23
2017-08-25T02:50:29.958Z,18.2
2017-08-25T02:51:29.983Z,18.23
2017-08-25T02:52:30.232Z,18.12
2017-08-25T02:53:30.233Z,18.14
2017-08-25T02:54:29.970Z,18.14
2017-08-25T02:55:29.861Z,18.1
2017-08-25T02:56:29.861Z,18.23
2017-08-25T02:57:30.150Z,18.2
2017-08-25T02:58:29.509Z,18.15
2017-08-25T02:59:30.112Z,18.19
2017-08-25T03:00:29.476Z,18.23
2017-08-25T03:01:30.151Z,18.22
2017-08-25T03:02:29.759Z,17.86
2017-08-25T03:03:30.059Z,17.83
2017-08-25T03:04:29.740Z,17.86
2017-08-25T03:05:29.710Z,17.82
2017-08-25T03:06:30.016Z,17.85
2017-08-25T03:07:29.997Z,17.93
2017-08-25T03:08:29.970Z,17.83
2017-08-25T03:09:29.950Z,17.83
2017-08-25T03:10:29.628Z,17.83
2017-08-25T03:11:29.970Z,17.87
2017-08-25T03:12:29.916Z,17.85
2017-08-25T03:13:29.586Z,17.96
2017-08-25T03:14:29.570Z,17.86
2017-08-25T03:15:29.861Z,17.71
2017-08-25T03:16:29.539Z,17.7
2017-08-25T03:17:29.222Z,17.55
2017-08-25T03:18:29.509Z,17.55
2017-08-25T03:19:29.168Z,17.54
2017-08-25T03:20:29.800Z,17.48
2017-08-25T03:21:29.770Z,17.62
2017-08-25T03:22:29.749Z,17.7
2017-08-25T03:23:29.111Z,17.71
2017-08-25T03:24:29.410Z,17.55
2017-08-25T03:25:29.693Z,17.65
2017-08-25T03:26:29.380Z,17.65
2017-08-25T03:27:29.669Z,17.8
2017-08-25T03:28:29.659Z,17.77
2017-08-25T03:29:29.341Z,17.74
2017-08-25T03:30:29.020Z,17.78
2017-08-25T03:31:29.630Z,17.83
2017-08-25T03:32:29.620Z,17.8
2017-08-25T03:33:29.257Z,17.77
2017-08-25T03:34:29.578Z,17.86
2017-08-25T03:35:28.921Z,17.83
2017-08-25T03:36:29.210Z,17.85
2017-08-25T03:37:28.890Z,17.82
2017-08-25T03:38:29.489Z,17.65
2017-08-25T03:39:29.165Z,17.71
2017-08-25T03:40:29.459Z,17.68
2017-08-25T03:41:29.150Z,17.6
2017-08-25T03:42:29.110Z,17.71
2017-08-25T03:43:28.801Z,17.55
2017-08-25T03:44:29.411Z,17.62
2017-08-25T03:45:28.775Z,17.6
2017-08-25T03:46:29.368Z,17.67
2017-08-25T03:47:29.054Z,17.67
2017-08-25T03:48:29.353Z,17.48
2017-08-25T03:49:29.309Z,17.49
2017-08-25T03:50:28.680Z,17.65
2017-08-25T03:51:29.281Z,17.68
2017-08-25T03:52:28.951Z,17.67
2017-08-25T03:53:28.940Z,17.64
2017-08-25T03:54:28.929Z,17.7
2017-08-25T03:55:29.210Z,17.67
2017-08-25T03:56:28.603Z,17.65
2017-08-25T03:57:28.879Z,17.68
2017-08-25T03:58:29.170Z,17.7
2017-08-25T03:59:29.160Z,17.78
2017-08-25T04:00:29.141Z,17.82
2017-08-25T04:01:29.120Z,17.77
2017-08-25T04:02:29.100Z,17.62
2017-08-25T04:03:28.783Z,17.58
2017-08-25T04:04:29.070Z,17.6
2017-08-25T04:05:29.062Z,17.65
2017-08-25T04:06:28.731Z,17.62
2017-08-25T04:07:29.021Z,17.44
2017-08-25T04:08:29.020Z,17.51
2017-08-25T04:09:28.692Z,17.62
2017-08-25T04:10:28.671Z,17.7
2017-08-25T04:11:28.951Z,17.67
2017-08-25T04:12:28.941Z,17.67
2017-08-25T04:13:28.625Z,17.68
2017-08-25T04:14:28.912Z,17.7
2017-08-25T04:15:28.890Z,17.67
2017-08-25T04:16:28.890Z,17.7
2017-08-25T04:17:28.884Z,17.58
2017-08-25T04:18:28.858Z,17.62
2017-08-25T04:19:28.533Z,17.7
2017-08-25T04:20:28.810Z,17.64
2017-08-25T04:21:28.810Z,17.56
2017-08-25T04:22:28.814Z,17.56
2017-08-25T04:23:28.450Z,17.56
2017-08-25T04:24:28.451Z,17.52
2017-08-25T04:25:28.731Z,17.58
2017-08-25T04:26:28.503Z,17.49
2017-08-25T04:27:28.701Z,17.45
2017-08-25T04:28:28.745Z,17.44
2017-08-25T04:29:28.360Z,17.45
2017-08-25T04:30:28.674Z,17.49
2017-08-25T04:31:28.328Z,17.48
2017-08-25T04:32:28.711Z,17.51
2017-08-25T04:33:28.302Z,17.54
2017-08-25T04:34:28.404Z,17.54
2017-08-25T04:35:28.570Z,17.6
2017-08-25T04:36:28.569Z,17.44
2017-08-25T04:37:28.539Z,17.54
2017-08-25T04:38:28.220Z,17.46
2017-08-25T04:39:27.880Z,17.51
2017-08-25T04:40:28.271Z,17.46
2017-08-25T04:41:28.164Z,17.46
2017-08-25T04:42:28.531Z,17.4
2017-08-25T04:43:28.127Z,17.42
2017-08-25T04:44:28.427Z,17.45
2017-08-25T04:45:28.440Z,17.45
2017-08-25T04:46:28.399Z,17.33
2017-08-25T04:47:28.070Z,17.34
2017-08-25T04:48:28.366Z,17.34
2017-08-25T04:49:28.357Z,17.29
2017-08-25T04:50:28.339Z,17.46
2017-08-25T04:51:28.306Z,17.44
2017-08-25T04:52:28.298Z,17.49
2017-08-25T04:53:28.311Z,17.54
2017-08-25T04:54:27.970Z,17.6
2017-08-25T04:55:27.940Z,17.65
2017-08-25T04:56:28.311Z,17.51
2017-08-25T04:57:27.912Z,17.6
2017-08-25T04:58:28.258Z,17.58
2017-08-25T04:59:27.870Z,17.51
2017-08-25T05:00:28.168Z,17.58
2017-08-25T05:01:27.526Z,17.67
2017-08-25T05:02:28.226Z,17.64
2017-08-25T05:03:27.916Z,17.65
2017-08-25T05:04:28.152Z,17.7
2017-08-25T05:05:27.769Z,17.48
2017-08-25T05:06:27.758Z,17.56
2017-08-25T05:07:27.781Z,17.52
2017-08-25T05:08:27.731Z,17.52
2017-08-25T05:09:27.713Z,17.51
2017-08-25T05:10:28.047Z,17.65
2017-08-25T05:11:28.030Z,17.55
2017-08-25T05:12:27.977Z,17.68
2017-08-25T05:13:27.643Z,17.58
2017-08-25T05:14:27.627Z,17.54
2017-08-25T05:15:28.025Z,17.55
2017-08-25T05:16:27.592Z,17.65
2017-08-25T05:17:27.892Z,17.7
2017-08-25T05:18:27.930Z,17.75
2017-08-25T05:19:27.883Z,17.64
2017-08-25T05:20:27.553Z,17.65
2017-08-25T05:21:27.850Z,17.65
2017-08-25T05:22:27.501Z,17.8
2017-08-25T05:23:27.491Z,17.78
2017-08-25T05:24:27.888Z,17.75
2017-08-25T05:25:27.486Z,17.83
2017-08-25T05:26:27.470Z,17.86
2017-08-25T05:27:27.780Z,18.04
2017-08-25T05:28:27.089Z,17.93
2017-08-25T05:29:27.728Z,17.9
2017-08-25T05:30:27.380Z,17.83
2017-08-25T05:31:27.660Z,17.75
2017-08-25T05:32:27.331Z,17.83
2017-08-25T05:33:27.400Z,17.85
2017-08-25T05:34:27.630Z,17.87
2017-08-25T05:35:27.295Z,17.96
2017-08-25T05:36:27.593Z,17.93
2017-08-25T05:37:27.580Z,18.07
2017-08-25T05:38:27.550Z,18.05
2017-08-25T05:39:27.538Z,18.15
2017-08-25T05:40:27.525Z,18.19
2017-08-25T05:41:27.533Z,18.14
2017-08-25T05:42:27.490Z,18.18
2017-08-25T05:43:27.171Z,18.25
2017-08-25T05:44:27.490Z,18.38
2017-08-25T05:45:27.451Z,18.29
2017-08-25T05:46:27.120Z,18.25
2017-08-25T05:47:27.095Z,18.1
2017-08-25T05:48:27.102Z,18.18
2017-08-25T05:49:27.381Z,18.07
2017-08-25T05:50:27.381Z,17.98
2017-08-25T05:51:27.351Z,17.96
2017-08-25T05:52:27.031Z,17.93
2017-08-25T05:53:27.011Z,17.95
2017-08-25T05:54:26.992Z,17.92
2017-08-25T05:55:27.320Z,17.95
2017-08-25T05:56:27.271Z,17.86
2017-08-25T05:57:26.941Z,17.95
2017-08-25T05:58:26.930Z,17.89
2017-08-25T05:59:26.935Z,17.92
2017-08-25T06:00:26.901Z,17.89
2017-08-25T06:01:26.879Z,17.83
2017-08-25T06:02:26.560Z,17.89
2017-08-25T06:03:26.861Z,18.02
2017-08-25T06:04:26.840Z,18.14
2017-08-25T06:05:27.143Z,18.27
2017-08-25T06:06:27.123Z,18.41
2017-08-25T06:07:26.794Z,18.38
2017-08-25T06:08:27.098Z,18.48
2017-08-25T06:09:27.069Z,18.44
2017-08-25T06:10:27.053Z,18.52
2017-08-25T06:11:26.730Z,18.55
2017-08-25T06:12:26.721Z,18.48
2017-08-25T06:13:26.713Z,18.35
2017-08-25T06:14:26.688Z,18.23
2017-08-25T06:15:26.980Z,18.3
2017-08-25T06:16:26.991Z,18.38
2017-08-25T06:17:26.943Z,18.41
2017-08-25T06:18:26.621Z,18.48
2017-08-25T06:19:26.911Z,18.5
2017-08-25T06:20:26.900Z,18.5
2017-08-25T06:21:26.610Z,18.37
2017-08-25T06:22:26.561Z,18.29
2017-08-25T06:23:26.557Z,18.47
2017-08-25T06:24:26.844Z,18.47
2017-08-25T06:25:26.496Z,18.5
2017-08-25T06:26:26.499Z,18.48
2017-08-25T06:27:26.810Z,18.48
2017-08-25T06:28:26.778Z,18.44
2017-08-25T06:29:26.442Z,18.42
2017-08-25T06:30:26.130Z,18.55
2017-08-25T06:31:26.437Z,18.51
2017-08-25T06:32:26.413Z,18.42
2017-08-25T06:33:26.741Z,18.41
2017-08-25T06:34:26.383Z,18.4
2017-08-25T06:35:26.363Z,18.4
2017-08-25T06:36:26.669Z,18.41
2017-08-25T06:37:26.331Z,18.47
2017-08-25T06:38:26.643Z,18.47
2017-08-25T06:39:26.651Z,18.51
2017-08-25T06:40:26.617Z,18.45
2017-08-25T06:41:26.606Z,18.48
2017-08-25T06:42:26.590Z,18.6
2017-08-25T06:43:26.566Z,18.65
2017-08-25T06:44:26.540Z,18.7
2017-08-25T06:45:26.541Z,18.75
2017-08-25T06:46:26.506Z,18.63
2017-08-25T06:47:26.504Z,18.75
2017-08-25T06:48:26.477Z,18.84
2017-08-25T06:49:26.594Z,18.99
2017-08-25T06:50:26.465Z,19.15
2017-08-25T06:51:26.489Z,19.19
2017-08-25T06:52:26.413Z,19.3
2017-08-25T06:53:26.480Z,19.4
2017-08-25T06:54:26.398Z,19.46
2017-08-25T06:55:26.380Z,19.38
2017-08-25T06:56:26.363Z,19.4
2017-08-25T06:57:26.483Z,19.53
2017-08-25T06:58:25.711Z,19.77
2017-08-25T06:59:26.325Z,20.04
2017-08-25T07:00:26.020Z,20.36
2017-08-25T07:01:25.989Z,20.55
2017-08-25T07:02:26.011Z,20.57
2017-08-25T07:03:25.970Z,20.51
2017-08-25T07:04:26.261Z,20.44
2017-08-25T07:05:26.242Z,20.25
2017-08-25T07:06:25.922Z,20.18
2017-08-25T07:07:26.260Z,19.55
2017-08-25T07:08:26.215Z,19.61
2017-08-25T07:09:25.880Z,19.77
2017-08-25T07:10:26.221Z,20.26
2017-08-25T07:11:26.171Z,20.69
2017-08-25T07:12:26.135Z,20.91
2017-08-25T07:13:26.132Z,21.29
2017-08-25T07:14:25.802Z,21.26
2017-08-25T07:15:26.147Z,21.39
2017-08-25T07:16:26.104Z,21.54
2017-08-25T07:17:26.085Z,21.99
2017-08-25T07:18:25.760Z,22.22
2017-08-25T07:19:26.098Z,22.33
2017-08-25T07:20:25.736Z,22.21
2017-08-25T07:21:26.030Z,22.21
2017-08-25T07:22:25.720Z,22.22
2017-08-25T07:23:26.011Z,22.17
2017-08-25T07:24:26.000Z,22.21
2017-08-25T07:25:26.004Z,22.17
2017-08-25T07:26:25.990Z,22
2017-08-25T07:27:26.028Z,21.61
2017-08-25T07:28:25.641Z,21.76
2017-08-25T07:29:25.953Z,22.06
2017-08-25T07:30:25.612Z,21.49
2017-08-25T07:31:25.916Z,21.46
2017-08-25T07:32:25.911Z,21.66
2017-08-25T07:33:25.900Z,21.83
2017-08-25T07:34:25.920Z,22.18
2017-08-25T07:35:25.874Z,22.4
2017-08-25T07:36:25.872Z,23.07
2017-08-25T07:37:25.560Z,23.63
2017-08-25T07:38:25.861Z,23.09
2017-08-25T07:39:25.842Z,23.63
2017-08-25T07:40:25.832Z,24.27
2017-08-25T07:41:25.821Z,24.71
2017-08-25T07:42:25.812Z,24.52
2017-08-25T07:43:25.492Z,24.25
2017-08-25T07:44:25.501Z,24.7
2017-08-25T07:45:25.485Z,25.02
2017-08-25T07:46:25.779Z,25.52
2017-08-25T07:47:25.808Z,25.77
2017-08-25T07:48:25.774Z,25.56
2017-08-25T07:49:25.549Z,25.48
2017-08-25T07:50:25.795Z,25.56
2017-08-25T07:51:25.131Z,25.66
2017-08-25T07:52:25.442Z,24.77
2017-08-25T07:53:25.520Z,23.89
2017-08-25T07:54:25.759Z,24.24
2017-08-25T07:55:25.812Z,24.75
2017-08-25T07:56:25.418Z,25.11
2017-08-25T07:57:25.770Z,25.27
2017-08-25T07:58:25.722Z,26.08
2017-08-25T07:59:25.410Z,26.33
2017-08-25T08:00:25.759Z,25.88
2017-08-25T08:01:25.401Z,24.71
2017-08-25T08:02:25.410Z,24.25
2017-08-25T08:03:25.401Z,24.33
2017-08-25T08:04:25.710Z,24.57
2017-08-25T08:05:25.710Z,25.27
2017-08-25T08:06:25.687Z,25.48
2017-08-25T08:07:25.690Z,26.37
2017-08-25T08:08:25.689Z,26.91
2017-08-25T08:09:25.684Z,27.37
2017-08-25T08:10:25.368Z,27.6
2017-08-25T08:11:25.370Z,27.9
2017-08-25T08:12:25.365Z,28.34
2017-08-25T08:13:25.660Z,28.6
2017-08-25T08:14:25.662Z,28.82
2017-08-25T08:15:25.688Z,28.21
2017-08-25T08:16:25.692Z,28.25
2017-08-25T08:17:25.657Z,28.8
2017-08-25T08:18:25.659Z,28.34
2017-08-25T08:19:25.671Z,27.74
2017-08-25T08:20:25.042Z,27.93
2017-08-25T08:21:25.340Z,28.31
2017-08-25T08:22:25.402Z,28.8
2017-08-25T08:23:25.336Z,29.25
2017-08-25T08:24:25.759Z,28.95
2017-08-25T08:25:25.670Z,29.12
2017-08-25T08:26:25.661Z,29.22
2017-08-25T08:27:25.340Z,29.59
2017-08-25T08:28:25.343Z,28.83
2017-08-25T08:29:25.334Z,28.82
2017-08-25T08:30:25.340Z,28.5
2017-08-25T08:31:25.020Z,28.58
2017-08-25T08:32:25.025Z,28.3
2017-08-25T08:33:25.662Z,28.24
2017-08-25T08:34:25.342Z,27.81
2017-08-25T08:35:25.331Z,27.74
2017-08-25T08:36:25.633Z,27.57
2017-08-25T08:37:25.632Z,27.96
2017-08-25T08:38:25.631Z,28.25
2017-08-25T08:39:25.633Z,28.52
2017-08-25T08:40:25.630Z,28.61
2017-08-25T08:41:25.623Z,27.72
2017-08-25T08:42:25.636Z,28.15
2017-08-25T08:43:25.620Z,28.08
2017-08-25T08:44:25.301Z,27.72
2017-08-25T08:45:25.302Z,28.05
2017-08-25T08:46:25.611Z,28.49
2017-08-25T08:47:25.616Z,28.49
2017-08-25T08:48:25.302Z,28.86
2017-08-25T08:49:25.618Z,28.97
2017-08-25T08:50:25.318Z,28.64
2017-08-25T08:51:25.300Z,28.31
2017-08-25T08:52:25.608Z,28.7
2017-08-25T08:53:25.599Z,28.95
2017-08-25T08:54:25.623Z,29.37
2017-08-25T08:55:25.301Z,29.58
2017-08-25T08:56:25.607Z,29.3
2017-08-25T08:57:25.607Z,29.57
2017-08-25T08:58:25.669Z,30.05
2017-08-25T08:59:25.639Z,29.35
2017-08-25T09:00:25.286Z,29.52
2017-08-25T09:01:24.971Z,29.86
2017-08-25T09:02:25.610Z,30.05
2017-08-25T09:03:25.600Z,29.52
2017-08-25T09:04:25.586Z,29.46
2017-08-25T09:05:25.280Z,29.66
2017-08-25T09:06:25.585Z,30.18
2017-08-25T09:07:25.275Z,30.2
2017-08-25T09:08:25.280Z,29.91
2017-08-25T09:09:25.270Z,29.96
2017-08-25T09:10:25.276Z,30.23
2017-08-25T09:11:25.610Z,30.23
2017-08-25T09:12:25.580Z,30.1
2017-08-25T09:13:25.600Z,29.84
2017-08-25T09:14:25.279Z,30.1
2017-08-25T09:15:25.283Z,30.13
2017-08-25T09:16:25.601Z,30.21
2017-08-25T09:17:25.280Z,30.21
2017-08-25T09:18:25.274Z,30.46
2017-08-25T09:19:25.642Z,30.58
2017-08-25T09:20:25.280Z,30.78
2017-08-25T09:21:25.586Z,30.61
2017-08-25T09:22:25.597Z,30.38
2017-08-25T09:23:25.579Z,30.35
2017-08-25T09:24:24.967Z,29.57
2017-08-25T09:25:25.589Z,29.49
2017-08-25T09:26:25.275Z,29.51
2017-08-25T09:27:25.279Z,29.77
2017-08-25T09:28:25.579Z,30.01
2017-08-25T09:29:25.281Z,30.26
2017-08-25T09:30:25.582Z,30.43
2017-08-25T09:31:25.577Z,30.56
2017-08-25T09:32:24.968Z,30.95
2017-08-25T09:33:25.568Z,31.03
2017-08-25T09:34:25.570Z,31.05
2017-08-25T09:35:25.567Z,31.32
2017-08-25T09:36:25.272Z,31.52
2017-08-25T09:37:25.574Z,31.63
2017-08-25T09:38:25.580Z,31.62
2017-08-25T09:39:25.579Z,31.85
2017-08-25T09:40:25.570Z,31.64
2017-08-25T09:41:25.261Z,31.4
2017-08-25T09:42:25.580Z,31.4
2017-08-25T09:43:25.264Z,31.2
2017-08-25T09:44:25.672Z,30.43
2017-08-25T09:45:25.580Z,30.83
2017-08-25T09:46:25.573Z,31.07
2017-08-25T09:47:25.273Z,30.81
2017-08-25T09:48:25.249Z,30.67
2017-08-25T09:49:24.956Z,30.78
2017-08-25T09:50:25.253Z,30.81
2017-08-25T09:51:25.583Z,31.08
2017-08-25T09:52:25.598Z,31.07
2017-08-25T09:53:25.569Z,31.2
2017-08-25T09:54:25.254Z,31.25
2017-08-25T09:55:25.575Z,31.51
2017-08-25T09:56:25.579Z,31.63
2017-08-25T09:57:25.258Z,31.33
2017-08-25T09:58:25.259Z,31.33
2017-08-25T09:59:25.244Z,31.3
2017-08-25T10:00:25.558Z,31.2
2017-08-25T10:01:25.253Z,30.56
2017-08-25T10:02:25.253Z,30.64
2017-08-25T10:03:25.557Z,30.98
2017-08-25T10:04:25.568Z,30.11
2017-08-25T10:05:25.549Z,29.43
2017-08-25T10:06:25.546Z,29.43
2017-08-25T10:07:25.559Z,29.91
2017-08-25T10:08:25.549Z,29.99
2017-08-25T10:09:25.592Z,30.32
2017-08-25T10:10:25.543Z,30.55
2017-08-25T10:11:25.548Z,30.85
2017-08-25T10:12:25.221Z,30.64
2017-08-25T10:13:25.531Z,30.2
2017-08-25T10:14:24.896Z,30.43
2017-08-25T10:15:25.568Z,29.91
2017-08-25T10:16:25.521Z,30.2
2017-08-25T10:17:25.524Z,30.25
2017-08-25T10:18:25.506Z,30.21
2017-08-25T10:19:25.617Z,29.44
2017-08-25T10:20:25.518Z,29.49
2017-08-25T10:21:25.510Z,30.13
2017-08-25T10:22:25.223Z,29.55
2017-08-25T10:23:25.499Z,29.15
2017-08-25T10:24:25.488Z,29.44
2017-08-25T10:25:25.184Z,29.84
2017-08-25T10:26:25.500Z,30.21
2017-08-25T10:27:25.500Z,30.64
2017-08-25T10:28:25.174Z,30.63
2017-08-25T10:29:25.481Z,30.58
2017-08-25T10:30:25.152Z,28.82
2017-08-25T10:31:25.457Z,28.35
2017-08-25T10:32:25.452Z,28.7
2017-08-25T10:33:25.128Z,28.97
2017-08-25T10:34:25.466Z,29.3
2017-08-25T10:35:25.437Z,29.91
2017-08-25T10:36:25.424Z,30.2
2017-08-25T10:37:25.425Z,30.73
2017-08-25T10:38:25.414Z,31.03
2017-08-25T10:39:24.790Z,30.18
2017-08-25T10:40:25.421Z,30.35
2017-08-25T10:41:25.426Z,29.83
2017-08-25T10:42:25.396Z,29.55
2017-08-25T10:43:25.102Z,29.76
2017-08-25T10:44:25.385Z,30.18
2017-08-25T10:45:25.369Z,30.78
2017-08-25T10:46:25.376Z,31.18
2017-08-25T10:47:25.362Z,31.37
2017-08-25T10:48:25.390Z,31.56
2017-08-25T10:49:25.362Z,31.66
2017-08-25T10:50:25.096Z,31.95
2017-08-25T10:51:25.049Z,32.09
2017-08-25T10:52:25.388Z,32.17
2017-08-25T10:53:25.336Z,30.78
2017-08-25T10:54:25.006Z,30.18
2017-08-25T10:55:25.328Z,28.18
2017-08-25T10:56:25.319Z,27.41
2017-08-25T10:57:25.307Z,27.41
2017-08-25T10:58:25.295Z,27.86
2017-08-25T10:59:25.307Z,28.21
2017-08-25T11:00:24.977Z,28.19
2017-08-25T11:01:25.295Z,28.33
2017-08-25T11:02:25.265Z,28.76
2017-08-25T11:03:24.968Z,29.36
2017-08-25T11:04:25.265Z,29.37
2017-08-25T11:05:25.244Z,30.05
2017-08-25T11:06:25.266Z,30.21
2017-08-25T11:07:24.930Z,29.88
2017-08-25T11:08:25.249Z,30.18
2017-08-25T11:09:24.997Z,30.01
2017-08-25T11:10:25.218Z,29.94
2017-08-25T11:11:25.221Z,29.98
2017-08-25T11:12:25.224Z,30.26
2017-08-25T11:13:24.878Z,30.52
2017-08-25T11:14:24.889Z,30.38
2017-08-25T11:15:25.191Z,30.48
2017-08-25T11:16:25.190Z,30.82
2017-08-25T11:17:24.878Z,30.88
2017-08-25T11:18:24.854Z,31.08
2017-08-25T11:19:25.188Z,31.25
2017-08-25T11:20:25.174Z,31.32
2017-08-25T11:21:25.167Z,31.49
2017-08-25T11:22:24.827Z,31.56
2017-08-25T11:23:24.831Z,31.48
2017-08-25T11:24:25.135Z,30.81
2017-08-25T11:25:24.824Z,30.63
2017-08-25T11:26:25.141Z,30.92
2017-08-25T11:27:25.198Z,31.33
2017-08-25T11:28:25.107Z,31.51
2017-08-25T11:29:25.160Z,31.49
2017-08-25T11:30:25.100Z,31.47
2017-08-25T11:31:24.796Z,31.52
2017-08-25T11:32:24.468Z,31.64
2017-08-25T11:33:25.083Z,31.64
2017-08-25T11:34:24.759Z,30.7
2017-08-25T11:35:25.068Z,30.14
2017-08-25T11:36:24.827Z,30.35
2017-08-25T11:37:24.750Z,30.64
2017-08-25T11:38:25.069Z,31
2017-08-25T11:39:25.038Z,31.03
2017-08-25T11:40:25.067Z,31.15
2017-08-25T11:41:24.747Z,31.2
2017-08-25T11:42:25.060Z,31.05
2017-08-25T11:43:24.710Z,30.13
2017-08-25T11:44:24.697Z,29.06
2017-08-25T11:45:24.698Z,29.31
2017-08-25T11:46:24.997Z,29.1
2017-08-25T11:47:24.681Z,28.74
2017-08-25T11:48:25.008Z,28.24
2017-08-25T11:49:24.996Z,28.7
2017-08-25T11:50:24.369Z,28.71
2017-08-25T11:51:24.987Z,29.2
2017-08-25T11:52:24.749Z,29.52
2017-08-25T11:53:24.959Z,30.11
2017-08-25T11:54:24.969Z,30.45
2017-08-25T11:55:24.641Z,30.31
2017-08-25T11:56:25.059Z,29.91
2017-08-25T11:57:24.705Z,30.08
2017-08-25T11:58:24.984Z,30.21
2017-08-25T11:59:24.996Z,29.35
2017-08-25T12:00:25.038Z,29.51
2017-08-25T12:01:24.709Z,29.79
2017-08-25T12:02:24.914Z,30.23
2017-08-25T12:03:24.578Z,30.26
2017-08-25T12:04:24.888Z,30.26
2017-08-25T12:05:24.888Z,29.83
2017-08-25T12:06:24.918Z,29.73
2017-08-25T12:07:24.889Z,29.57
2017-08-25T12:08:24.918Z,29.2
2017-08-25T12:09:24.599Z,28.87
2017-08-25T12:10:24.583Z,29.12
2017-08-25T12:11:24.537Z,29.64
2017-08-25T12:12:24.847Z,29.8
2017-08-25T12:13:24.548Z,30.08
2017-08-25T12:14:24.541Z,30.23
2017-08-25T12:15:24.537Z,30.13
2017-08-25T12:16:24.817Z,30.28
2017-08-25T12:17:24.832Z,30.43
2017-08-25T12:18:24.791Z,30.63
2017-08-25T12:19:24.611Z,30.63
2017-08-25T12:20:24.776Z,30.59
2017-08-25T12:21:24.476Z,30.66
2017-08-25T12:22:24.782Z,30.61
2017-08-25T12:23:24.755Z,30.28
2017-08-25T12:24:24.467Z,30.39
2017-08-25T12:25:24.457Z,29.7
2017-08-25T12:26:24.436Z,29.61
2017-08-25T12:27:24.507Z,29.81
2017-08-25T12:28:24.729Z,29.37
2017-08-25T12:29:24.461Z,28.93
2017-08-25T12:30:24.728Z,29.15
2017-08-25T12:31:24.708Z,29.64
2017-08-25T12:32:24.389Z,29.99
2017-08-25T12:33:24.446Z,30.1
2017-08-25T12:34:24.807Z,30.16
2017-08-25T12:35:24.469Z,30.21
2017-08-25T12:36:24.694Z,30.08
2017-08-25T12:37:24.702Z,29.88
2017-08-25T12:38:24.666Z,29.79
2017-08-25T12:39:24.770Z,29.83
2017-08-25T12:40:24.370Z,28.74
2017-08-25T12:41:24.367Z,28.64
2017-08-25T12:42:24.637Z,28.47
2017-08-25T12:43:24.719Z,28.05
2017-08-25T12:44:24.668Z,28.24
2017-08-25T12:45:24.641Z,28.47
2017-08-25T12:46:24.617Z,28.06
2017-08-25T12:47:24.607Z,28.13
2017-08-25T12:48:24.272Z,28.28
2017-08-25T12:49:24.597Z,28.53
2017-08-25T12:50:24.588Z,28.87
2017-08-25T12:51:24.609Z,29.3
2017-08-25T12:52:24.559Z,29.68
2017-08-25T12:53:24.258Z,29.1
2017-08-25T12:54:24.638Z,28.82
2017-08-25T12:55:24.559Z,28.28